Historyczne dane pomiarowe

Dodano dane terminowe – wersja testowa.

Dane z okresu 1951-2019

Wersja bazy: 1.34 [2019-03-16, lista zmian], aktualizacja planowana na 2019-04-15

Dane meteo z obszaru Polski uzyskane na podstawie danych udostępnionych przez Instytut Meteorologii i Gospodarki Wodnej – Państwowy Instytut Badawczy.

 

Wybierz Datę:    

       

TemperaturaWilgotnośćZachmurzenieWiatrCiśnienieWidzialnośćZjawiska
 Data    tng td wb rh cc ccl cl cm ch dir g1 g2 mslp ppp      
1994-06-16 00:00:00 5.6--- 4.3 5.091wxwx0wx--1013.6 971.9 0.0---wx
1994-06-16 01:00:00 5.5--- 3.5 4.687wxwxwx0wx--1013.4 971.7----wx
1994-06-16 02:00:00 7.0--- 5.3 6.289wxwxwx0wx--1012.5 971.0----wx
1994-06-16 03:00:00 7.8--- 6.2 7.090wxwxwx0wx--1011.8 970.5----wx
1994-06-16 04:00:00 10.4--- 6.0 8.274wxwxwx1wx--1011.0 970.1----wx
1994-06-16 05:00:00 12.2--- 5.2 8.762wxwxwx4wx--1010.6 969.9----wx
1994-06-16 06:00:00 12.4--- 6.1 9.266wxwxwx3wx--1010.4 969.8 0.0---wx
1994-06-16 07:00:00 10.2--- 8.3 9.288wxwxwx5wx10-1011.6 970.6----wx
1994-06-16 08:00:00 10.7--- 8.6 9.687wxwxwx3wx--1011.5 970.6----wx
1994-06-16 09:00:00 12.7--- 8.4 10.475wxwxwx4wx10-1011.0 970.4----wxw1
1994-06-16 10:00:00 13.7--- 7.0 10.264wxwxwx3wx--1010.7 970.2----wx
1994-06-16 11:00:00 13.3--- 7.0 10.066wxwxwx3wx--1010.6 970.1----wx
1994-06-16 12:00:00 11.9--- 8.1 9.978wxwxwx5wx--1011.2 970.5 0.2---wxw1
1994-06-16 13:00:00 12.3--- 7.1 9.671wxwxwx5wx11-1010.7 970.0----wx
1994-06-16 14:00:00 12.9--- 7.8 10.271wxwxwx3wx--1010.0 969.5----wx
1994-06-16 15:00:00 12.3--- 8.0 10.075wxwxwxwx4wx--1010.2 969.6----wxw1
1994-06-16 16:00:00 12.2--- 7.6 9.874wxwxwxwx4wx--1009.9 969.3----wxw1
1994-06-16 17:00:00 11.2--- 8.6 9.884wxwxwx3wx--1009.9 969.1----wxw1
1994-06-16 18:00:00 10.4--- 9.3 9.893wxwxwx1wx--1010.2 969.3 1.5---wxw1
1994-06-16 19:00:00 10.0--- 9.3 9.695wxwxwx1wx--1010.3 969.3----wxw1
1994-06-16 20:00:00 9.0--- 7.8 8.492wxwxwx3wx--1010.9 969.8----wxw1
1994-06-16 21:00:00 8.8--- 7.2 8.090wxwxwx3wx--1011.3 970.1----wx
1994-06-16 22:00:00 8.8--- 7.2 8.090wxwxwx2wx--1011.6 970.4----wx
1994-06-16 23:00:00 9.0--- 7.4 8.290wxwxwx1wx--1011.6 970.4----wx

 

Źródłem pochodzenia danych jest Instytut Meteorologii i Gospodarki Wodnej – Państwowy Instytut Badawczy. Dane Instytutu Meteorologii i Gospodarki Wodnej – Państwowego Instytutu Badawczego zostały przetworzone.

Dane źródłowe można odnaleźć na stronie https://dane.imgw.pl